Time;durP1;ratioP1;P1;durP2;ratioP2;P2;SDS_P1;SDS_P2;PMS_P1;PMS_P2;Temp;Humidity;BMP_temperature;BMP_pressure;BME280_temperature;BME280_humidity;BME280_pressure;Samples;Min_cycle;Max_cycle;Signal;HPM_P1;HPM_P2
2021/12/25 00:01:15;;;;;;;250.77;143.90;;;6.80;99.90;;;;;;5047150;28;20071;-76
2021/12/25 00:03:41;;;;;;;266.65;144.35;;;6.70;99.90;;;;;;5045712;28;20029;-77
2021/12/25 00:06:08;;;;;;;270.92;145.63;;;6.70;99.90;;;;;;5043717;28;20036;-76
2021/12/25 00:08:34;;;;;;;259.63;140.68;;;6.70;99.90;;;;;;5042418;28;20083;-77
2021/12/25 00:11:02;;;;;;;268.85;143.75;;;6.70;99.90;;;;;;5042990;28;20457;-77
2021/12/25 00:13:28;;;;;;;264.88;145.35;;;6.70;99.90;;;;;;5042302;28;20372;-77
2021/12/25 00:15:54;;;;;;;255.68;138.18;;;6.80;99.90;;;;;;5042009;28;20056;-77
2021/12/25 00:18:20;;;;;;;228.93;133.68;;;6.80;99.90;;;;;;5041117;28;20541;-76
2021/12/25 00:20:46;;;;;;;235.27;133.90;;;6.90;99.90;;;;;;5040279;28;21574;-77
2021/12/25 00:23:13;;;;;;;232.57;135.35;;;6.90;99.90;;;;;;5037710;28;20030;-78
2021/12/25 00:25:44;;;;;;;251.00;134.60;;;6.90;99.90;;;;;;5047220;28;20033;-77
2021/12/25 00:33:51;;;;;;;269.27;147.25;;;6.70;99.90;;;;;;5045690;28;20488;-77
2021/12/25 00:36:19;;;;;;;282.25;151.93;;;6.60;99.90;;;;;;5040195;28;20495;-77
2021/12/25 00:38:46;;;;;;;268.67;152.60;;;6.60;99.90;;;;;;5042060;28;20047;-77
2021/12/25 00:41:13;;;;;;;274.50;153.57;;;6.60;99.90;;;;;;5042330;28;20029;-77
2021/12/25 00:43:40;;;;;;;282.30;152.40;;;6.60;99.90;;;;;;5052252;28;20036;-76
2021/12/25 00:46:05;;;;;;;270.30;150.45;;;6.60;99.90;;;;;;5047634;28;20099;-75
2021/12/25 00:48:31;;;;;;;278.48;152.05;;;6.50;99.90;;;;;;5040768;28;20041;-76
2021/12/25 00:50:57;;;;;;;272.90;152.48;;;6.50;99.90;;;;;;5043730;28;20034;-76
2021/12/25 00:53:23;;;;;;;279.50;154.50;;;6.50;99.90;;;;;;5045492;28;20490;-78
2021/12/25 00:55:49;;;;;;;274.98;150.25;;;6.50;99.90;;;;;;5048617;28;20029;-76
2021/12/25 00:58:15;;;;;;;287.35;155.82;;;6.50;99.90;;;;;;5049138;28;20040;-77
2021/12/25 01:00:41;;;;;;;282.15;155.10;;;6.50;99.90;;;;;;5049871;28;20082;-77
2021/12/25 01:03:07;;;;;;;273.05;154.75;;;6.40;99.90;;;;;;5043841;28;20070;-77
2021/12/25 01:05:33;;;;;;;283.38;158.98;;;6.40;99.90;;;;;;5049319;28;20094;-77
2021/12/25 01:07:59;;;;;;;327.38;189.10;;;6.40;99.90;;;;;;5043357;28;20472;-77
2021/12/25 01:10:25;;;;;;;283.67;155.57;;;6.50;99.90;;;;;;5049573;28;20392;-74
2021/12/25 01:13:02;;;;;;;279.23;154.38;;;6.40;99.90;;;;;;5039848;28;20033;-74
2021/12/25 01:31:34;;;;;;;249.57;142.60;;;6.40;99.90;;;;;;5041665;28;20083;-74
2021/12/25 01:39:40;;;;;;;212.00;126.60;;;6.50;99.90;;;;;;5050289;28;20041;-75
2021/12/25 01:47:46;;;;;;;182.77;113.07;;;6.80;99.90;;;;;;5047107;28;20039;-75
2021/12/25 01:50:13;;;;;;;187.80;112.05;;;7.00;99.90;;;;;;5047841;28;20416;-74
2021/12/25 01:52:39;;;;;;;169.70;111.75;;;7.00;99.90;;;;;;5038829;28;20476;-75
2021/12/25 01:55:10;;;;;;;173.05;111.00;;;7.00;99.90;;;;;;5032816;28;20110;-75
2021/12/25 01:57:36;;;;;;;180.90;114.10;;;7.10;99.90;;;;;;5044545;28;20210;-75
2021/12/25 02:00:09;;;;;;;180.85;112.82;;;7.10;99.90;;;;;;5051107;28;20029;-76
2021/12/25 02:02:35;;;;;;;182.07;112.10;;;7.10;99.90;;;;;;5044725;28;20077;-75
2021/12/25 02:05:00;;;;;;;199.23;121.80;;;7.10;99.90;;;;;;5050420;28;20029;-75
2021/12/25 02:07:26;;;;;;;196.20;120.45;;;6.90;99.90;;;;;;5043609;28;20566;-75
2021/12/25 02:09:52;;;;;;;206.18;121.88;;;6.90;99.90;;;;;;5048805;28;20032;-75
2021/12/25 02:12:18;;;;;;;235.68;136.18;;;6.80;99.90;;;;;;5043425;28;20052;-74
2021/12/25 02:14:46;;;;;;;239.70;135.55;;;6.70;99.90;;;;;;5051294;28;20103;-74
2021/12/25 02:17:51;;;;;;;244.52;134.02;;;6.70;99.90;;;;;;5038176;28;20500;-75
2021/12/25 02:20:13;;;;;;;249.43;134.68;;;6.60;99.90;;;;;;5032879;28;20561;-75
2021/12/25 02:22:40;;;;;;;235.73;132.07;;;6.60;99.90;;;;;;5035865;28;20025;-75
2021/12/25 02:25:06;;;;;;;232.40;131.50;;;6.60;99.90;;;;;;5047182;28;20028;-74
2021/12/25 02:27:31;;;;;;;233.45;134.13;;;6.70;99.90;;;;;;5040826;28;20044;-75
2021/12/25 02:29:57;;;;;;;250.93;134.90;;;6.70;99.90;;;;;;5047992;28;20021;-75
2021/12/25 02:32:23;;;;;;;237.35;130.52;;;6.70;99.90;;;;;;5040197;28;20070;-75
2021/12/25 02:34:49;;;;;;;240.48;134.20;;;6.70;99.90;;;;;;5033989;28;20049;-74
2021/12/25 02:37:15;;;;;;;247.07;134.98;;;6.70;99.90;;;;;;5041835;28;20091;-75
2021/12/25 02:39:41;;;;;;;240.13;138.98;;;6.70;99.90;;;;;;5050036;28;20068;-75
2021/12/25 02:42:08;;;;;;;245.18;136.07;;;6.70;99.90;;;;;;5038070;28;20025;-75
2021/12/25 02:44:34;;;;;;;264.33;143.85;;;6.60;99.90;;;;;;5035453;28;20041;-75
2021/12/25 02:47:09;;;;;;;266.02;144.25;;;6.60;99.90;;;;;;5041658;28;20017;-76
2021/12/25 02:49:35;;;;;;;279.08;147.48;;;6.60;99.90;;;;;;5048000;28;20029;-75
2021/12/25 02:52:01;;;;;;;283.58;149.23;;;6.50;99.90;;;;;;5038193;28;20036;-74
2021/12/25 02:54:26;;;;;;;278.80;149.50;;;6.50;99.90;;;;;;5035914;28;20022;-74
2021/12/25 02:56:52;;;;;;;276.92;150.50;;;6.50;99.90;;;;;;5037856;28;20029;-74
2021/12/25 02:59:18;;;;;;;269.83;144.65;;;6.50;99.90;;;;;;5049275;28;20025;-75
2021/12/25 03:01:43;;;;;;;262.60;139.52;;;6.50;99.90;;;;;;5037287;28;20116;-74
2021/12/25 03:04:09;;;;;;;256.48;143.35;;;6.50;99.90;;;;;;5044961;28;20391;-75
2021/12/25 03:06:37;;;;;;;256.90;137.45;;;6.60;99.90;;;;;;5045141;28;20021;-75
2021/12/25 03:09:05;;;;;;;249.85;135.48;;;6.60;99.90;;;;;;5047530;28;20024;-74
2021/12/25 03:11:30;;;;;;;248.65;137.80;;;6.60;99.90;;;;;;5043238;28;20580;-75
2021/12/25 03:13:59;;;;;;;259.67;140.63;;;6.60;99.90;;;;;;5049376;28;20115;-75
2021/12/25 03:16:25;;;;;;;268.23;140.32;;;6.60;99.90;;;;;;5044227;28;20048;-74
2021/12/25 03:18:54;;;;;;;278.40;143.57;;;6.60;99.90;;;;;;5041991;28;20127;-74
2021/12/25 03:21:20;;;;;;;269.10;144.50;;;6.60;99.90;;;;;;5042708;28;20022;-74
2021/12/25 03:23:48;;;;;;;294.40;150.43;;;6.60;99.90;;;;;;5042567;28;20396;-74
2021/12/25 03:26:14;;;;;;;297.05;156.50;;;6.50;99.90;;;;;;5045322;28;20024;-74
2021/12/25 03:28:43;;;;;;;300.42;156.23;;;6.50;99.90;;;;;;5042476;28;20476;-74
2021/12/25 03:31:17;;;;;;;294.33;154.85;;;6.50;99.90;;;;;;5044960;28;20031;-74
2021/12/25 03:33:50;;;;;;;280.05;150.55;;;6.50;99.90;;;;;;5043677;28;20506;-74
2021/12/25 03:36:16;;;;;;;247.10;140.80;;;6.50;99.90;;;;;;5043551;28;20107;-74
2021/12/25 03:38:44;;;;;;;234.52;135.20;;;6.60;99.90;;;;;;5049106;28;20094;-74
2021/12/25 03:41:10;;;;;;;226.30;130.25;;;6.60;99.90;;;;;;5042275;28;20028;-74
2021/12/25 03:43:39;;;;;;;189.88;118.57;;;6.60;99.90;;;;;;5044148;28;20029;-74
2021/12/25 03:46:08;;;;;;;177.48;114.75;;;6.80;99.90;;;;;;5042565;28;20116;-76
2021/12/25 03:49:00;;;;;;;171.32;111.45;;;6.90;99.90;;;;;;5038284;28;20021;-74
2021/12/25 03:59:41;;;;;;;172.45;108.03;;;7.20;99.90;;;;;;5031055;28;20041;-74
2021/12/25 04:02:16;;;;;;;173.25;109.82;;;7.20;99.90;;;;;;5037652;28;20032;-75
2021/12/25 04:04:46;;;;;;;172.40;108.38;;;7.10;99.90;;;;;;5049932;28;20025;-75
2021/12/25 04:07:31;;;;;;;180.50;113.90;;;7.10;99.90;;;;;;5038408;28;20547;-74
2021/12/25 04:10:01;;;;;;;177.73;110.55;;;7.00;99.90;;;;;;5031673;28;20021;-75
2021/12/25 04:12:27;;;;;;;173.23;112.85;;;7.00;99.90;;;;;;5039492;28;20037;-75
2021/12/25 04:14:52;;;;;;;183.38;115.40;;;7.10;99.90;;;;;;5048214;28;20029;-74
2021/12/25 04:17:18;;;;;;;192.18;118.55;;;7.00;99.90;;;;;;5038952;28;20049;-75
2021/12/25 04:19:44;;;;;;;175.18;114.07;;;7.00;99.90;;;;;;5048636;28;20395;-74
2021/12/25 04:22:16;;;;;;;179.18;109.78;;;7.00;99.90;;;;;;5038840;28;20021;-73
2021/12/25 04:24:44;;;;;;;167.82;108.15;;;7.10;99.90;;;;;;5048565;28;20033;-75
2021/12/25 04:27:13;;;;;;;164.02;103.47;;;7.10;99.90;;;;;;5040209;28;20494;-75
2021/12/25 04:30:03;;;;;;;155.50;99.95;;;7.20;99.90;;;;;;5053247;28;20036;-75
2021/12/25 05:05:01;;;;;;;169.20;103.90;;;7.00;99.90;;;;;;5051536;28;20024;-74
2021/12/25 05:07:27;;;;;;;164.85;103.10;;;6.90;99.90;;;;;;5042557;28;20033;-75
2021/12/25 05:09:53;;;;;;;162.70;104.13;;;7.00;99.90;;;;;;5051536;28;20029;-74
2021/12/25 05:12:19;;;;;;;145.98;95.38;;;7.00;99.90;;;;;;5045724;28;20115;-77
2021/12/25 05:14:45;;;;;;;144.50;91.53;;;7.00;99.90;;;;;;5053549;28;20029;-77
2021/12/25 05:17:13;;;;;;;126.72;87.82;;;7.20;99.90;;;;;;5040758;28;20063;-78
2021/12/25 05:19:39;;;;;;;129.60;87.95;;;7.30;99.90;;;;;;5053601;28;20044;-77
2021/12/25 05:22:05;;;;;;;136.32;88.78;;;7.40;99.90;;;;;;5041973;28;20032;-77
2021/12/25 05:24:30;;;;;;;126.80;85.38;;;7.50;99.90;;;;;;5053032;28;20033;-77
2021/12/25 05:26:57;;;;;;;142.57;92.32;;;7.50;99.90;;;;;;5043341;28;20393;-78
2021/12/25 05:29:30;;;;;;;153.00;96.45;;;7.50;99.90;;;;;;5050525;28;20029;-76
2021/12/25 05:31:55;;;;;;;145.55;95.35;;;7.50;99.90;;;;;;5041149;28;20021;-77
2021/12/25 05:34:21;;;;;;;146.07;95.03;;;7.50;99.90;;;;;;5038319;28;20037;-77
2021/12/25 05:36:47;;;;;;;151.18;94.80;;;7.50;99.90;;;;;;5041363;28;20027;-77
2021/12/25 05:39:14;;;;;;;156.43;93.85;;;7.50;99.90;;;;;;5051400;28;20057;-77
2021/12/25 05:41:40;;;;;;;150.38;93.65;;;7.50;99.90;;;;;;5046538;28;20025;-76
2021/12/25 05:44:06;;;;;;;150.82;93.50;;;7.50;99.90;;;;;;5047641;28;20059;-76
2021/12/25 05:46:32;;;;;;;155.27;96.03;;;7.50;99.90;;;;;;5040452;28;20053;-76
2021/12/25 05:48:58;;;;;;;162.43;97.57;;;7.60;99.90;;;;;;5051060;28;20438;-77
2021/12/25 05:51:23;;;;;;;157.43;94.38;;;7.60;99.90;;;;;;5042482;28;20057;-76
2021/12/25 05:53:49;;;;;;;162.68;97.43;;;7.60;99.90;;;;;;5045462;28;20137;-77
2021/12/25 05:56:15;;;;;;;157.35;98.68;;;7.60;99.90;;;;;;5043522;28;20383;-76
2021/12/25 05:58:41;;;;;;;160.88;97.93;;;7.70;99.90;;;;;;5048856;28;20126;-77
2021/12/25 06:01:07;;;;;;;152.55;98.32;;;7.60;99.90;;;;;;5044940;28;20110;-76
2021/12/25 06:03:33;;;;;;;164.02;98.57;;;7.60;99.90;;;;;;5044750;28;20084;-77
2021/12/25 06:05:59;;;;;;;160.88;97.20;;;7.60;99.90;;;;;;5047049;28;20027;-76
2021/12/25 06:08:25;;;;;;;159.23;97.18;;;7.70;99.90;;;;;;5045655;28;20119;-77
2021/12/25 06:10:51;;;;;;;172.20;100.65;;;7.60;99.90;;;;;;5047027;28;20082;-77
2021/12/25 06:13:20;;;;;;;162.20;100.43;;;7.70;99.90;;;;;;5047250;28;20114;-77
2021/12/25 06:15:46;;;;;;;159.65;97.78;;;7.70;99.90;;;;;;5046984;28;20150;-77
2021/12/25 06:18:12;;;;;;;174.23;101.95;;;7.70;99.90;;;;;;5043929;28;20033;-77
2021/12/25 06:20:38;;;;;;;172.27;102.13;;;7.70;99.90;;;;;;5047761;28;20029;-76
2021/12/25 06:23:04;;;;;;;156.05;98.38;;;7.70;99.90;;;;;;5041977;28;20089;-76
2021/12/25 06:25:30;;;;;;;163.32;102.55;;;7.70;99.90;;;;;;5048046;28;20116;-76
2021/12/25 06:27:57;;;;;;;150.57;96.85;;;7.70;99.90;;;;;;5043135;28;20530;-77
2021/12/25 06:30:23;;;;;;;160.02;97.78;;;7.70;99.90;;;;;;5047361;28;20018;-76
2021/12/25 06:32:48;;;;;;;158.75;98.25;;;7.60;99.90;;;;;;5042185;28;20090;-77
2021/12/25 06:35:14;;;;;;;156.23;95.20;;;7.60;99.90;;;;;;5049081;28;20032;-77
2021/12/25 06:37:41;;;;;;;147.43;93.25;;;7.50;99.90;;;;;;5041080;28;20024;-77
2021/12/25 06:40:10;;;;;;;159.82;98.93;;;7.50;99.90;;;;;;5049335;28;20179;-77
2021/12/25 06:42:36;;;;;;;159.32;98.47;;;7.50;99.90;;;;;;5034626;28;20029;-77
2021/12/25 06:45:02;;;;;;;165.15;101.97;;;7.40;99.90;;;;;;5049567;28;20041;-78
2021/12/25 06:47:28;;;;;;;170.25;104.38;;;7.40;99.90;;;;;;5041876;28;20132;-77
2021/12/25 06:49:54;;;;;;;159.18;97.30;;;7.30;99.90;;;;;;5031571;28;20520;-77
2021/12/25 06:52:19;;;;;;;158.57;98.03;;;7.30;99.90;;;;;;5044177;28;20040;-77
2021/12/25 06:54:45;;;;;;;158.60;97.78;;;7.40;99.90;;;;;;5050734;28;20061;-77
2021/12/25 06:57:11;;;;;;;156.18;97.78;;;7.40;99.90;;;;;;5040131;28;20051;-77
2021/12/25 06:59:36;;;;;;;160.35;95.25;;;7.40;99.90;;;;;;5034976;28;20546;-78
2021/12/25 07:02:02;;;;;;;149.63;94.10;;;7.50;99.90;;;;;;5038188;28;20406;-77
2021/12/25 07:04:28;;;;;;;143.35;90.10;;;7.50;99.90;;;;;;5034896;28;20038;-78
2021/12/25 07:06:54;;;;;;;143.80;92.75;;;7.60;99.90;;;;;;5038174;28;20029;-78
2021/12/25 07:09:20;;;;;;;157.55;98.93;;;7.60;99.90;;;;;;5045746;28;20021;-78
2021/12/25 07:11:45;;;;;;;164.95;97.25;;;7.60;99.90;;;;;;5040827;28;20055;-78
2021/12/25 07:14:12;;;;;;;154.02;98.60;;;7.50;99.90;;;;;;5042795;28;20025;-77
2021/12/25 07:16:38;;;;;;;152.63;96.10;;;7.50;99.90;;;;;;5037689;28;20520;-78
2021/12/25 07:19:03;;;;;;;156.40;95.13;;;7.60;99.90;;;;;;5044905;28;20048;-78
2021/12/25 07:21:30;;;;;;;134.48;90.93;;;7.60;99.90;;;;;;5040069;28;20058;-78
2021/12/25 07:23:56;;;;;;;159.82;99.78;;;7.60;99.90;;;;;;5048528;28;20032;-77
2021/12/25 07:26:22;;;;;;;150.85;98.05;;;7.50;99.90;;;;;;5042114;28;20055;-78
2021/12/25 07:28:49;;;;;;;168.95;101.82;;;7.40;99.90;;;;;;5037583;28;20041;-78
2021/12/25 07:31:16;;;;;;;156.90;101.35;;;7.40;99.90;;;;;;5036267;28;20108;-78
2021/12/25 07:33:42;;;;;;;165.00;103.18;;;7.40;99.90;;;;;;5043442;28;20037;-77
2021/12/25 07:36:13;;;;;;;163.02;102.05;;;7.40;99.90;;;;;;5042983;28;20067;-78
2021/12/25 07:38:39;;;;;;;159.23;97.68;;;7.40;99.90;;;;;;5045757;28;20488;-78
2021/12/25 07:41:05;;;;;;;150.05;94.65;;;7.40;99.90;;;;;;5043189;28;20052;-78
2021/12/25 07:43:31;;;;;;;152.15;95.15;;;7.50;99.90;;;;;;5047563;28;20069;-78
2021/12/25 07:45:57;;;;;;;163.85;100.57;;;7.60;99.90;;;;;;5043544;28;20026;-78
2021/12/25 07:48:25;;;;;;;172.57;100.50;;;7.60;99.90;;;;;;5043888;28;20029;-78
2021/12/25 07:50:52;;;;;;;153.93;96.07;;;7.50;99.90;;;;;;5044715;28;20025;-78
2021/12/25 07:53:18;;;;;;;142.05;95.30;;;7.50;99.90;;;;;;5039570;28;20087;-79
2021/12/25 07:55:44;;;;;;;154.90;95.25;;;7.60;99.90;;;;;;5045546;28;20415;-78
2021/12/25 07:58:10;;;;;;;136.15;89.30;;;7.70;99.90;;;;;;5041428;28;20032;-78
2021/12/25 08:00:36;;;;;;;132.90;91.28;;;7.80;99.90;;;;;;5047002;28;20407;-79
2021/12/25 08:03:02;;;;;;;146.02;93.25;;;7.90;99.90;;;;;;5043395;28;20028;-79
2021/12/25 08:05:29;;;;;;;143.38;93.03;;;7.90;99.90;;;;;;5046494;28;20025;-79
2021/12/25 08:07:55;;;;;;;145.30;92.10;;;7.90;99.90;;;;;;5049404;28;20026;-79
2021/12/25 08:10:21;;;;;;;138.55;90.15;;;7.90;99.90;;;;;;5052656;28;20116;-79
2021/12/25 08:12:51;;;;;;;146.13;93.75;;;7.90;99.90;;;;;;5047889;28;20043;-79
2021/12/25 08:15:19;;;;;;;142.73;91.63;;;8.00;99.90;;;;;;5051071;28;20025;-78
2021/12/25 08:17:45;;;;;;;137.63;90.25;;;8.00;99.90;;;;;;5045056;28;20491;-78
2021/12/25 08:20:12;;;;;;;139.63;89.28;;;8.20;99.90;;;;;;5050981;28;20181;-79
2021/12/25 08:22:38;;;;;;;130.25;84.88;;;8.30;99.90;;;;;;5043203;28;20483;-77
2021/12/25 08:25:06;;;;;;;129.20;84.45;;;8.40;99.90;;;;;;5051062;28;20036;-78
2021/12/25 08:27:32;;;;;;;120.78;82.75;;;8.40;99.90;;;;;;5044419;28;20033;-79
2021/12/25 08:29:58;;;;;;;129.75;82.68;;;8.40;99.90;;;;;;5051887;28;20025;-80
2021/12/25 08:32:24;;;;;;;127.80;81.28;;;8.50;99.90;;;;;;5043137;28;20479;-79
2021/12/25 08:34:50;;;;;;;131.13;84.25;;;8.40;99.90;;;;;;5040941;28;20025;-79
2021/12/25 08:37:21;;;;;;;123.63;83.97;;;8.40;99.90;;;;;;5046022;28;20033;-79
2021/12/25 08:39:46;;;;;;;123.80;82.85;;;8.40;99.90;;;;;;5036363;28;20383;-80
2021/12/25 08:42:12;;;;;;;130.20;84.28;;;8.50;99.90;;;;;;5041685;28;20029;-79
2021/12/25 08:47:08;;;;;;;133.07;86.43;;;8.50;99.90;;;;;;5042367;28;20111;-78
2021/12/25 08:49:35;;;;;;;127.40;87.82;;;8.50;99.90;;;;;;5053686;28;20564;-78
2021/12/25 08:52:06;;;;;;;127.35;84.80;;;8.50;99.90;;;;;;5041627;28;20025;-79
2021/12/25 08:54:32;;;;;;;128.23;85.75;;;8.50;99.90;;;;;;5049959;28;20509;-79
2021/12/25 08:56:59;;;;;;;135.68;88.57;;;8.50;99.90;;;;;;5042499;28;20107;-78
2021/12/25 08:59:26;;;;;;;130.63;86.93;;;8.40;99.90;;;;;;5049328;28;20523;-78
2021/12/25 09:01:52;;;;;;;128.73;85.43;;;8.50;99.90;;;;;;5042492;28;20426;-79
2021/12/25 09:04:18;;;;;;;144.32;89.05;;;8.40;99.90;;;;;;5033359;28;20037;-78
2021/12/25 09:06:44;;;;;;;139.00;86.72;;;8.50;99.90;;;;;;5042175;28;20021;-79
2021/12/25 09:09:11;;;;;;;117.15;81.40;;;8.60;99.90;;;;;;5050010;28;20468;-79
2021/12/25 09:11:37;;;;;;;120.13;83.63;;;8.60;99.90;;;;;;5056245;28;20033;-78
2021/12/25 09:14:04;;;;;;;123.47;82.15;;;8.60;99.90;;;;;;5046307;28;20036;-77
2021/12/25 09:16:30;;;;;;;121.85;82.32;;;8.60;99.90;;;;;;5040650;28;20131;-78
2021/12/25 09:18:56;;;;;;;128.15;80.88;;;8.70;99.90;;;;;;5051240;28;20090;-78
2021/12/25 09:21:22;;;;;;;125.70;82.57;;;8.70;99.90;;;;;;5040809;28;20028;-80
2021/12/25 09:23:48;;;;;;;134.80;85.13;;;8.70;99.90;;;;;;5051133;28;20472;-77
2021/12/25 09:26:14;;;;;;;140.07;85.95;;;8.70;99.90;;;;;;5045581;28;20066;-76
2021/12/25 09:28:40;;;;;;;141.48;88.25;;;8.70;99.90;;;;;;5042718;28;20045;-78
2021/12/25 09:31:06;;;;;;;125.78;83.50;;;8.70;99.90;;;;;;5039335;28;20017;-79
2021/12/25 09:33:32;;;;;;;138.20;87.50;;;8.70;99.90;;;;;;5050615;28;20485;-80
2021/12/25 09:36:02;;;;;;;138.18;85.20;;;8.80;99.90;;;;;;5046043;28;20100;-81
2021/12/25 09:38:28;;;;;;;144.85;85.93;;;8.80;99.90;;;;;;5040455;28;20034;-79
2021/12/25 09:40:56;;;;;;;140.45;86.43;;;9.00;99.90;;;;;;5038810;28;20021;-79
2021/12/25 09:43:21;;;;;;;143.52;90.57;;;9.00;99.90;;;;;;5045411;28;20146;-77
2021/12/25 09:45:48;;;;;;;148.27;92.07;;;9.10;99.90;;;;;;5048066;28;20513;-81
2021/12/25 09:48:13;;;;;;;167.20;101.50;;;9.20;99.90;;;;;;5045032;28;20033;-79
2021/12/25 09:50:39;;;;;;;144.18;88.68;;;9.30;99.90;;;;;;5048379;28;20029;-79
2021/12/25 09:53:11;;;;;;;156.77;88.50;;;9.20;99.90;;;;;;5046152;28;20545;-80
2021/12/25 09:55:38;;;;;;;144.48;88.72;;;9.10;99.90;;;;;;5048134;28;20100;-80
2021/12/25 09:58:05;;;;;;;148.32;87.78;;;9.10;99.90;;;;;;5045474;28;20029;-82
2021/12/25 10:00:33;;;;;;;137.57;86.57;;;9.10;99.90;;;;;;5036405;28;20028;-81
2021/12/25 10:02:59;;;;;;;135.20;86.13;;;9.00;99.90;;;;;;5044013;28;20026;-79
2021/12/25 10:05:34;;;;;;;132.20;83.63;;;9.10;99.90;;;;;;5034042;28;20487;-80
2021/12/25 10:08:07;;;;;;;141.88;84.30;;;9.10;99.90;;;;;;5044625;28;20063;-78
2021/12/25 10:10:56;;;;;;;140.20;82.88;;;9.20;99.90;;;;;;5047894;28;20025;-78
2021/12/25 10:13:42;;;;;;;125.75;81.75;;;9.30;99.90;;;;;;5043523;28;20376;-76
2021/12/25 10:16:26;;;;;;;131.18;81.95;;;9.30;99.90;;;;;;5047912;28;20048;-79
2021/12/25 10:18:54;;;;;;;146.57;86.65;;;9.40;99.90;;;;;;5048168;28;20091;-78
2021/12/25 10:21:20;;;;;;;155.90;91.65;;;9.30;99.90;;;;;;5047448;28;20013;-77
2021/12/25 10:24:05;;;;;;;161.38;96.50;;;9.00;99.90;;;;;;5044979;28;20025;-78
2021/12/25 10:26:33;;;;;;;152.60;93.15;;;8.90;99.90;;;;;;5044960;28;20037;-79
2021/12/25 10:28:59;;;;;;;154.43;96.18;;;8.80;99.90;;;;;;5046514;28;20479;-81
2021/12/25 10:31:33;;;;;;;165.48;99.90;;;8.60;99.90;;;;;;5047023;28;20055;-80
2021/12/25 10:33:59;;;;;;;166.68;101.35;;;8.40;99.90;;;;;;5037188;28;20063;-80
2021/12/25 10:36:35;;;;;;;181.70;105.40;;;8.30;99.90;;;;;;5036315;28;20037;-80
2021/12/25 10:39:11;;;;;;;184.13;104.35;;;8.30;99.90;;;;;;5046745;28;20483;-80
2021/12/25 10:41:50;;;;;;;185.88;104.90;;;8.20;99.90;;;;;;5043179;28;20108;-79
2021/12/25 10:44:23;;;;;;;195.02;109.03;;;8.10;99.90;;;;;;5037026;28;20087;-80
2021/12/25 10:46:56;;;;;;;198.40;111.15;;;8.10;99.90;;;;;;5038928;28;20080;-80
2021/12/25 10:49:25;;;;;;;190.82;107.32;;;8.00;99.90;;;;;;5036918;28;20025;-77
2021/12/25 10:51:51;;;;;;;171.60;100.20;;;8.00;99.90;;;;;;5037517;28;20036;-78
2021/12/25 10:54:18;;;;;;;168.45;101.38;;;8.10;99.90;;;;;;5036636;28;20079;-78
2021/12/25 10:56:49;;;;;;;165.23;100.53;;;8.10;99.90;;;;;;5036105;28;20124;-78
2021/12/25 10:59:17;;;;;;;160.35;94.03;;;8.20;99.90;;;;;;5050239;28;20033;-82
2021/12/25 11:01:48;;;;;;;137.82;90.82;;;8.20;99.90;;;;;;5045352;28;20385;-79
2021/12/25 11:04:29;;;;;;;142.20;92.30;;;8.20;99.90;;;;;;5035084;28;20075;-78
2021/12/25 11:06:56;;;;;;;158.52;96.00;;;8.20;99.90;;;;;;5045423;28;20049;-80
2021/12/25 11:09:23;;;;;;;147.73;93.43;;;8.20;99.90;;;;;;5046400;28;20021;-81
2021/12/25 11:12:29;;;;;;;143.27;92.57;;;8.20;99.90;;;;;;5040385;28;20439;-79
2021/12/25 11:15:09;;;;;;;130.00;87.40;;;8.20;99.90;;;;;;5027797;28;20028;-76
2021/12/25 11:17:42;;;;;;;125.95;81.80;;;8.30;99.90;;;;;;5027914;28;20435;-78
2021/12/25 11:20:18;;;;;;;124.20;79.43;;;8.50;99.90;;;;;;5032046;28;20381;-79
2021/12/25 11:22:53;;;;;;;113.47;76.07;;;8.70;99.90;;;;;;5041604;28;20530;-79
2021/12/25 11:25:24;;;;;;;123.10;79.45;;;8.70;99.90;;;;;;5048594;28;20525;-78
2021/12/25 11:27:51;;;;;;;117.82;75.63;;;8.80;99.90;;;;;;5039708;28;20056;-75
2021/12/25 11:30:20;;;;;;;123.10;80.03;;;8.90;99.90;;;;;;5034496;28;20022;-77
2021/12/25 11:32:47;;;;;;;130.98;85.70;;;9.00;99.90;;;;;;5039699;28;20112;-77
2021/12/25 11:35:15;;;;;;;138.90;86.47;;;9.10;99.90;;;;;;5031731;28;20123;-77
2021/12/25 11:37:42;;;;;;;133.13;86.60;;;9.10;99.90;;;;;;5039483;28;20081;-78
2021/12/25 11:40:10;;;;;;;117.72;83.70;;;9.10;99.90;;;;;;5032675;28;20137;-78
2021/12/25 11:42:45;;;;;;;130.68;84.50;;;9.20;99.90;;;;;;5038228;28;20027;-79
2021/12/25 11:45:39;;;;;;;123.97;83.45;;;9.30;99.90;;;;;;5048321;28;20768;-78
2021/12/25 11:48:15;;;;;;;118.45;79.03;;;9.30;99.90;;;;;;5038613;28;20053;-77
2021/12/25 11:50:45;;;;;;;131.23;85.65;;;9.20;99.90;;;;;;5035117;28;20037;-77
2021/12/25 11:56:20;;;;;;;123.68;84.25;;;9.30;99.90;;;;;;5035108;28;20082;-78
2021/12/25 12:19:54;;;;;;;125.22;85.57;;;9.30;99.90;;;;;;5091887;27;1566573;-83
2021/12/25 12:27:37;;;;;;;127.00;81.75;;;9.50;99.90;;;;;;5145146;27;20121;-82
2021/12/25 12:30:10;;;;;;;125.63;80.28;;;9.50;99.90;;;;;;5133569;27;20118;-81
2021/12/25 12:32:57;;;;;;;150.43;85.47;;;9.40;99.90;;;;;;5146479;27;20031;-81
2021/12/25 12:35:43;;;;;;;150.38;87.38;;;9.30;99.90;;;;;;5116981;28;20059;-81
2021/12/25 12:38:28;;;;;;;141.10;87.60;;;9.20;99.90;;;;;;5108445;28;20032;-82
2021/12/25 12:41:20;;;;;;;142.52;87.20;;;9.20;99.90;;;;;;5116458;28;20031;-83
2021/12/25 12:44:12;;;;;;;125.15;82.40;;;9.20;99.90;;;;;;5094704;28;20040;-82
2021/12/25 12:46:50;;;;;;;128.60;82.10;;;9.20;99.90;;;;;;5110534;28;20106;-78
2021/12/25 12:49:26;;;;;;;138.55;89.90;;;9.20;99.90;;;;;;5107700;28;20380;-79
2021/12/25 12:52:15;;;;;;;136.95;87.78;;;9.20;99.90;;;;;;5099082;28;20028;-79
2021/12/25 12:55:02;;;;;;;140.52;87.32;;;9.20;99.90;;;;;;5094472;28;20059;-80
2021/12/25 12:57:45;;;;;;;133.52;85.35;;;9.20;99.90;;;;;;5124299;28;20055;-81
2021/12/25 13:00:12;;;;;;;137.07;87.50;;;9.20;99.90;;;;;;5121355;28;20062;-80
2021/12/25 13:02:44;;;;;;;140.25;90.43;;;9.20;99.90;;;;;;5110990;28;20035;-80
2021/12/25 13:05:10;;;;;;;144.73;88.35;;;9.30;99.90;;;;;;5094492;28;20485;-80
2021/12/25 13:07:40;;;;;;;129.23;85.20;;;9.30;99.90;;;;;;5125156;28;20044;-84
2021/12/25 13:10:20;;;;;;;145.98;91.57;;;9.30;99.90;;;;;;5103528;28;20020;-80
2021/12/25 13:12:50;;;;;;;152.35;94.65;;;9.20;99.90;;;;;;5087707;28;20486;-79
2021/12/25 13:15:26;;;;;;;156.02;95.35;;;9.10;99.90;;;;;;5100968;28;20135;-81
2021/12/25 13:17:59;;;;;;;156.23;91.72;;;9.10;99.90;;;;;;5088185;28;20071;-80
2021/12/25 13:20:45;;;;;;;153.38;97.35;;;9.00;99.90;;;;;;5080329;28;20261;-80
2021/12/25 13:23:26;;;;;;;158.02;97.03;;;9.10;99.90;;;;;;5073600;28;20040;-83
2021/12/25 13:26:15;;;;;;;159.75;93.05;;;9.00;99.90;;;;;;5081619;28;20479;-80
2021/12/25 13:28:43;;;;;;;151.88;92.90;;;9.00;99.90;;;;;;5091278;28;20048;-80
2021/12/25 13:31:16;;;;;;;148.93;90.32;;;9.10;99.90;;;;;;5087454;28;20020;-81
2021/12/25 13:33:49;;;;;;;140.65;87.22;;;9.20;99.90;;;;;;5074017;28;20073;-79
2021/12/25 13:36:21;;;;;;;142.05;90.22;;;9.30;99.90;;;;;;5083598;28;20095;-81
2021/12/25 13:38:57;;;;;;;146.10;89.93;;;9.40;99.90;;;;;;5090935;28;20024;-80
2021/12/25 13:41:34;;;;;;;151.18;92.47;;;9.40;99.90;;;;;;5082213;28;20028;-81
2021/12/25 13:44:15;;;;;;;153.60;91.95;;;9.40;99.90;;;;;;5074631;28;20474;-80
2021/12/25 13:47:13;;;;;;;157.85;95.32;;;9.50;99.90;;;;;;5067869;28;20027;-82
2021/12/25 13:50:29;;;;;;;140.23;90.93;;;9.50;99.90;;;;;;5086333;28;20079;-83
2021/12/25 13:53:03;;;;;;;146.75;88.82;;;9.50;99.90;;;;;;5069151;28;20053;-83
2021/12/25 13:55:36;;;;;;;142.85;89.45;;;9.50;99.90;;;;;;5077815;28;20021;-83
2021/12/25 13:58:17;;;;;;;;;;;9.50;99.90;;;;;;5055642;28;20471;-82
2021/12/25 14:00:50;;;;;;;132.85;84.75;;;9.50;99.90;;;;;;5084407;28;19927;-82
2021/12/25 14:03:24;;;;;;;136.18;86.43;;;9.50;99.90;;;;;;5073065;28;20032;-81
2021/12/25 14:05:52;;;;;;;141.88;90.43;;;9.50;99.90;;;;;;5083813;28;20016;-82
2021/12/25 14:08:23;;;;;;;144.20;93.22;;;9.50;99.90;;;;;;5072713;28;20056;-82
2021/12/25 14:10:52;;;;;;;158.95;91.93;;;9.30;99.90;;;;;;5076507;28;20025;-82
2021/12/25 14:13:21;;;;;;;151.45;89.88;;;9.20;99.90;;;;;;5093016;28;20024;-82
2021/12/25 14:15:51;;;;;;;141.52;90.90;;;9.30;99.90;;;;;;5065834;28;20378;-82
2021/12/25 14:18:19;;;;;;;148.35;91.45;;;9.20;99.90;;;;;;5054623;28;20083;-82
2021/12/25 14:20:46;;;;;;;143.38;88.88;;;9.10;99.90;;;;;;5077663;28;20471;-81